createdAt,value
2022-12-05T00:01:37.251Z,7.46
2022-12-05T00:06:40.481Z,7.44
2022-12-05T00:11:44.686Z,7.48
2022-12-05T00:16:46.112Z,7.51
2022-12-05T00:21:47.530Z,7.53
2022-12-05T00:26:49.084Z,7.48
2022-12-05T00:31:50.613Z,7.44
2022-12-05T00:36:52.090Z,7.42
2022-12-05T00:41:53.505Z,7.46
2022-12-05T00:46:54.878Z,7.46
2022-12-05T00:51:56.412Z,7.48
2022-12-05T00:56:57.851Z,7.48
2022-12-05T01:01:59.278Z,7.49
2022-12-05T01:07:00.642Z,7.54
2022-12-05T01:12:02.057Z,7.55
2022-12-05T01:17:03.818Z,7.55
2022-12-05T01:22:05.267Z,7.51
2022-12-05T01:27:06.692Z,7.54
2022-12-05T01:32:08.190Z,7.52
2022-12-05T01:37:09.658Z,7.51
2022-12-05T01:42:12.179Z,7.54
2022-12-05T01:47:17.484Z,7.55
2022-12-05T01:52:23.327Z,7.58
2022-12-05T01:57:25.394Z,7.60
2022-12-05T02:02:29.673Z,7.59
2022-12-05T02:07:32.183Z,7.62
2022-12-05T02:12:34.620Z,7.67
2022-12-05T02:17:54.097Z,7.65
2022-12-05T02:23:13.851Z,7.63
2022-12-05T02:28:33.915Z,7.59
2022-12-05T02:33:40.822Z,7.55
2022-12-05T02:39:11.271Z,7.55
2022-12-05T02:44:20.510Z,7.53
2022-12-05T02:49:26.290Z,7.52
2022-12-05T02:54:33.760Z,7.49
2022-12-05T02:59:35.908Z,7.46
2022-12-05T03:04:37.570Z,7.46
2022-12-05T03:09:44.682Z,7.44
2022-12-05T03:14:51.476Z,7.47
2022-12-05T03:20:06.872Z,7.53
2022-12-05T03:25:09.620Z,7.56
2022-12-05T03:30:15.143Z,7.59
2022-12-05T03:35:22.685Z,7.66
2022-12-05T03:40:49.043Z,7.68
2022-12-05T03:45:59.783Z,7.68
2022-12-05T03:51:05.820Z,7.64
2022-12-05T03:56:16.480Z,7.66
2022-12-05T04:01:21.466Z,7.67
2022-12-05T04:06:23.118Z,7.62
2022-12-05T04:11:27.399Z,7.56
2022-12-05T04:16:59.251Z,7.56
2022-12-05T04:22:00.639Z,7.55
2022-12-05T04:27:26.477Z,7.54
2022-12-05T04:32:37.239Z,7.52
2022-12-05T04:37:42.479Z,7.58
2022-12-05T04:42:47.147Z,7.65
2022-12-05T04:47:55.799Z,7.68
2022-12-05T04:52:59.301Z,7.69
2022-12-05T04:58:18.910Z,7.68
2022-12-05T05:03:30.274Z,7.62
2022-12-05T05:08:31.725Z,7.57
2022-12-05T05:13:33.098Z,7.54
2022-12-05T05:18:34.543Z,7.53
2022-12-05T05:23:35.901Z,7.53
2022-12-05T05:28:37.295Z,7.52
2022-12-05T05:33:38.762Z,7.57
2022-12-05T05:38:42.872Z,7.62
2022-12-05T05:43:45.287Z,7.60
2022-12-05T05:48:47.583Z,7.52
2022-12-05T05:53:49.691Z,7.46
2022-12-05T05:59:02.744Z,7.40
2022-12-05T06:04:04.209Z,7.32
2022-12-05T06:09:07.720Z,7.29
2022-12-05T06:14:09.470Z,7.30
2022-12-05T06:19:10.892Z,7.31
2022-12-05T06:24:12.255Z,7.30
2022-12-05T06:29:13.855Z,7.32
2022-12-05T06:34:15.327Z,7.35
2022-12-05T06:39:16.772Z,7.35
2022-12-05T06:44:18.208Z,7.34
2022-12-05T06:49:19.638Z,7.34
2022-12-05T06:54:21.076Z,7.34
2022-12-05T06:59:22.524Z,7.38
2022-12-05T07:04:24.400Z,7.42
2022-12-05T07:09:44.630Z,7.38
2022-12-05T07:14:48.608Z,7.35
2022-12-05T07:19:52.534Z,7.34
2022-12-05T07:24:54.099Z,7.32
2022-12-05T07:29:56.312Z,7.34
2022-12-05T07:34:57.986Z,7.34
2022-12-05T07:39:59.509Z,7.38
2022-12-05T07:45:01.101Z,7.36
2022-12-05T07:50:02.591Z,7.45
2022-12-05T07:55:04.426Z,7.55
2022-12-05T08:00:06.767Z,7.61
2022-12-05T08:05:14.092Z,7.67
2022-12-05T08:10:15.545Z,7.76
2022-12-05T08:15:16.976Z,7.84
2022-12-05T08:20:18.503Z,7.90
2022-12-05T08:25:20.099Z,7.90
2022-12-05T08:30:21.619Z,7.92
2022-12-05T08:35:23.014Z,7.97
2022-12-05T08:40:24.469Z,8.02
2022-12-05T08:45:25.872Z,8.07
2022-12-05T08:50:27.253Z,8.10
2022-12-05T08:55:28.626Z,8.14
2022-12-05T09:00:30.032Z,8.19
2022-12-05T09:05:31.774Z,8.21
2022-12-05T09:10:33.708Z,8.20
2022-12-05T09:15:38.631Z,8.17
2022-12-05T09:20:40.095Z,8.17
2022-12-05T09:25:41.514Z,8.18
2022-12-05T09:30:43.750Z,8.18
2022-12-05T09:35:45.315Z,8.16
2022-12-05T09:40:56.399Z,8.20
2022-12-05T09:46:17.028Z,8.24
2022-12-05T09:51:18.555Z,8.27
2022-12-05T09:56:32.599Z,8.24
2022-12-05T10:01:43.958Z,8.26
2022-12-05T10:06:54.389Z,8.26
2022-12-05T10:12:13.851Z,8.22
2022-12-05T10:17:23.475Z,8.22
2022-12-05T10:22:27.631Z,8.23
2022-12-05T10:27:40.071Z,8.22
2022-12-05T10:32:53.315Z,8.20
2022-12-05T10:38:00.442Z,8.22
2022-12-05T10:43:02.047Z,8.21
2022-12-05T10:48:03.573Z,8.23
2022-12-05T10:53:06.424Z,8.27
2022-12-05T10:58:13.974Z,8.30
2022-12-05T11:03:26.449Z,8.32
2022-12-05T11:09:02.623Z,8.29
2022-12-05T11:14:23.798Z,8.37
2022-12-05T11:19:28.671Z,8.41
2022-12-05T11:24:31.360Z,8.42
2022-12-05T11:29:36.318Z,8.34
2022-12-05T11:34:42.626Z,8.28
2022-12-05T11:39:45.183Z,8.24
2022-12-05T11:44:46.514Z,8.22
2022-12-05T11:50:13.192Z,8.21
2022-12-05T11:55:20.017Z,8.24
2022-12-05T12:00:23.240Z,8.28
2022-12-05T12:05:24.526Z,8.30
2022-12-05T12:10:38.238Z,8.31
2022-12-05T12:15:53.437Z,8.31
2022-12-05T12:21:20.618Z,8.31
2022-12-05T12:26:46.587Z,8.33
2022-12-05T12:32:33.114Z,8.32
2022-12-05T12:37:48.136Z,8.33
2022-12-05T12:42:56.609Z,8.36
2022-12-05T12:48:12.851Z,8.37
2022-12-05T12:53:39.068Z,8.35
2022-12-05T12:59:23.959Z,8.36
2022-12-05T13:04:31.855Z,8.38
2022-12-05T13:09:46.119Z,8.38
2022-12-05T13:14:53.463Z,8.40
2022-12-05T13:19:56.886Z,8.37
2022-12-05T13:24:58.546Z,8.30
2022-12-05T13:30:03.576Z,8.18
2022-12-05T13:35:11.374Z,7.84
2022-12-05T13:40:44.651Z,7.60
2022-12-05T13:46:01.057Z,7.50
2022-12-05T13:51:13.367Z,7.35
2022-12-05T13:56:14.668Z,7.26
2022-12-05T14:01:25.946Z,7.21
2022-12-05T14:06:37.981Z,7.20
2022-12-05T14:11:39.559Z,7.22
2022-12-05T14:16:44.449Z,7.23
2022-12-05T14:21:49.891Z,7.16
2022-12-05T14:27:11.966Z,7.04
2022-12-05T14:32:16.523Z,6.93
2022-12-05T14:37:17.835Z,6.86
2022-12-05T14:42:27.349Z,6.78
2022-12-05T14:47:33.087Z,6.76
2022-12-05T14:52:34.705Z,6.78
2022-12-05T14:57:46.232Z,6.82
2022-12-05T15:02:51.208Z,6.86
2022-12-05T15:07:54.608Z,6.94
2022-12-05T15:13:11.478Z,7.03
2022-12-05T15:18:25.936Z,7.06
2022-12-05T15:23:42.562Z,7.08
2022-12-05T15:29:08.087Z,7.09
2022-12-05T15:34:20.572Z,7.12
2022-12-05T15:39:25.671Z,7.07
2022-12-05T15:44:34.235Z,7.04
2022-12-05T15:49:38.954Z,7.00
2022-12-05T15:54:41.380Z,6.93
2022-12-05T15:59:50.292Z,6.96
2022-12-05T16:04:58.150Z,6.89
2022-12-05T16:10:00.891Z,6.83
2022-12-05T16:15:04.980Z,6.80
2022-12-05T16:20:24.025Z,6.83
2022-12-05T16:25:28.773Z,6.87
2022-12-05T17:31:13.756Z,6.30
2022-12-05T17:50:52.298Z,6.10
2022-12-05T17:56:05.004Z,6.10
2022-12-05T18:01:25.141Z,6.09
2022-12-05T18:06:35.855Z,6.01
2022-12-05T18:12:09.367Z,5.99
2022-12-05T18:17:22.612Z,5.92
2022-12-05T18:27:47.214Z,5.62
2022-12-05T18:33:42.806Z,5.53
2022-12-05T18:38:50.259Z,5.44
2022-12-05T18:43:51.994Z,5.52
2022-12-05T18:48:55.015Z,5.66
2022-12-05T18:53:59.584Z,5.79
2022-12-05T18:59:03.864Z,5.87
2022-12-05T19:04:07.571Z,5.90
2022-12-05T19:09:13.033Z,5.94
2022-12-05T19:14:16.623Z,6.00
2022-12-05T19:20:17.927Z,6.00
2022-12-05T19:50:41.728Z,6.22
2022-12-05T19:56:13.374Z,6.17
2022-12-05T20:01:21.898Z,6.14
2022-12-05T20:06:24.819Z,6.14
2022-12-05T20:11:28.877Z,6.21
2022-12-05T20:16:30.575Z,6.28
2022-12-05T20:21:34.086Z,6.29
2022-12-05T20:26:38.918Z,6.37
2022-12-05T20:31:42.670Z,6.43
2022-12-05T20:36:44.204Z,6.44
2022-12-05T20:41:46.312Z,6.40
2022-12-05T20:46:51.542Z,6.28
2022-12-05T20:51:53.669Z,6.04
2022-12-05T20:56:55.084Z,5.85
2022-12-05T21:01:56.499Z,5.74
2022-12-05T21:06:58.119Z,5.64
2022-12-05T21:11:59.579Z,5.56
2022-12-05T21:17:01.082Z,5.47
2022-12-05T21:22:02.517Z,5.42
2022-12-05T21:27:03.990Z,5.39
2022-12-05T21:32:05.454Z,5.36
2022-12-05T21:37:06.851Z,5.44
2022-12-05T21:42:08.255Z,5.60
2022-12-05T21:47:09.655Z,5.71
2022-12-05T21:52:11.035Z,5.70
2022-12-05T21:57:12.644Z,5.73
2022-12-05T22:02:14.107Z,5.81
2022-12-05T22:07:16.265Z,5.88
2022-12-05T22:12:17.841Z,5.85
2022-12-05T22:17:19.210Z,5.88
2022-12-05T22:22:20.570Z,5.96
2022-12-05T22:27:21.971Z,6.05
2022-12-05T22:32:23.702Z,6.06
2022-12-05T22:37:25.086Z,6.15
2022-12-05T22:42:27.067Z,6.14
2022-12-05T22:47:28.450Z,6.04
2022-12-05T22:52:29.824Z,6.01
2022-12-05T22:57:31.187Z,6.01
2022-12-05T23:02:32.627Z,6.01
2022-12-05T23:07:34.199Z,6.01
2022-12-05T23:12:35.654Z,5.98
2022-12-05T23:17:37.096Z,6.03
2022-12-05T23:22:38.450Z,6.04
2022-12-05T23:27:39.858Z,6.12
2022-12-05T23:32:41.337Z,6.15
2022-12-05T23:37:42.795Z,6.11
2022-12-05T23:42:44.323Z,6.01
2022-12-05T23:47:45.698Z,5.99
2022-12-05T23:52:47.061Z,6.00
2022-12-05T23:57:48.431Z,5.90
